sensor_id;sensor_type;location;lat;lon;timestamp;P1;durP1;ratioP1;P2;durP2;ratioP2
60002;SDS011;46322;52.018;8.702;2022-07-25T00:03:05;12.93;;;9.07;;
60002;SDS011;46322;52.018;8.702;2022-07-25T00:08:06;14.30;;;10.27;;
60002;SDS011;46322;52.018;8.702;2022-07-25T00:13:06;13.82;;;10.52;;
60002;SDS011;46322;52.018;8.702;2022-07-25T00:18:06;14.80;;;9.87;;
60002;SDS011;46322;52.018;8.702;2022-07-25T00:23:07;15.75;;;10.50;;
60002;SDS011;46322;52.018;8.702;2022-07-25T00:28:07;15.43;;;9.82;;
60002;SDS011;46322;52.018;8.702;2022-07-25T00:33:07;13.77;;;9.57;;
60002;SDS011;46322;52.018;8.702;2022-07-25T00:38:07;14.35;;;10.20;;
60002;SDS011;46322;52.018;8.702;2022-07-25T00:43:08;15.57;;;10.30;;
60002;SDS011;46322;52.018;8.702;2022-07-25T00:48:08;12.52;;;9.52;;
60002;SDS011;46322;52.018;8.702;2022-07-25T00:53:08;13.70;;;10.07;;
60002;SDS011;46322;52.018;8.702;2022-07-25T00:58:09;12.50;;;9.43;;
60002;SDS011;46322;52.018;8.702;2022-07-25T01:03:09;15.13;;;10.43;;
60002;SDS011;46322;52.018;8.702;2022-07-25T01:08:09;14.27;;;9.20;;
60002;SDS011;46322;52.018;8.702;2022-07-25T01:13:11;13.47;;;8.77;;
60002;SDS011;46322;52.018;8.702;2022-07-25T01:18:11;14.77;;;10.95;;
60002;SDS011;46322;52.018;8.702;2022-07-25T01:23:12;14.07;;;11.07;;
60002;SDS011;46322;52.018;8.702;2022-07-25T01:28:12;13.77;;;10.73;;
60002;SDS011;46322;52.018;8.702;2022-07-25T01:33:16;15.02;;;10.02;;
60002;SDS011;46322;52.018;8.702;2022-07-25T01:38:17;14.52;;;9.98;;
60002;SDS011;46322;52.018;8.702;2022-07-25T01:43:17;14.70;;;10.33;;
60002;SDS011;46322;52.018;8.702;2022-07-25T01:48:18;16.30;;;10.55;;
60002;SDS011;46322;52.018;8.702;2022-07-25T01:53:19;14.30;;;10.43;;
60002;SDS011;46322;52.018;8.702;2022-07-25T01:58:19;15.10;;;10.45;;
60002;SDS011;46322;52.018;8.702;2022-07-25T02:03:19;15.02;;;10.85;;
60002;SDS011;46322;52.018;8.702;2022-07-25T02:08:22;15.97;;;11.23;;
60002;SDS011;46322;52.018;8.702;2022-07-25T02:13:23;14.23;;;10.07;;
60002;SDS011;46322;52.018;8.702;2022-07-25T02:18:27;14.32;;;10.32;;
60002;SDS011;46322;52.018;8.702;2022-07-25T02:23:27;16.40;;;10.00;;
60002;SDS011;46322;52.018;8.702;2022-07-25T02:28:27;14.35;;;10.45;;
60002;SDS011;46322;52.018;8.702;2022-07-25T02:33:28;13.75;;;10.27;;
60002;SDS011;46322;52.018;8.702;2022-07-25T02:38:28;15.07;;;9.82;;
60002;SDS011;46322;52.018;8.702;2022-07-25T02:43:28;14.00;;;9.50;;
60002;SDS011;46322;52.018;8.702;2022-07-25T02:48:30;14.67;;;9.90;;
60002;SDS011;46322;52.018;8.702;2022-07-25T02:53:30;16.10;;;10.35;;
60002;SDS011;46322;52.018;8.702;2022-07-25T02:58:30;12.98;;;9.50;;
60002;SDS011;46322;52.018;8.702;2022-07-25T03:03:30;13.45;;;10.05;;
60002;SDS011;46322;52.018;8.702;2022-07-25T03:08:31;13.68;;;9.73;;
60002;SDS011;46322;52.018;8.702;2022-07-25T03:13:31;13.87;;;9.50;;
60002;SDS011;46322;52.018;8.702;2022-07-25T03:18:31;14.40;;;8.80;;
60002;SDS011;46322;52.018;8.702;2022-07-25T03:23:31;13.95;;;9.10;;
60002;SDS011;46322;52.018;8.702;2022-07-25T03:28:32;12.10;;;8.97;;
60002;SDS011;46322;52.018;8.702;2022-07-25T03:33:32;12.40;;;8.65;;
60002;SDS011;46322;52.018;8.702;2022-07-25T03:38:32;13.95;;;9.38;;
60002;SDS011;46322;52.018;8.702;2022-07-25T03:43:33;13.95;;;9.35;;
60002;SDS011;46322;52.018;8.702;2022-07-25T03:48:33;13.03;;;9.57;;
60002;SDS011;46322;52.018;8.702;2022-07-25T03:53:34;14.40;;;9.57;;
60002;SDS011;46322;52.018;8.702;2022-07-25T03:58:35;15.70;;;9.83;;
60002;SDS011;46322;52.018;8.702;2022-07-25T04:03:35;14.20;;;9.45;;
60002;SDS011;46322;52.018;8.702;2022-07-25T04:08:35;13.20;;;9.43;;
60002;SDS011;46322;52.018;8.702;2022-07-25T04:13:35;13.27;;;9.27;;
60002;SDS011;46322;52.018;8.702;2022-07-25T04:18:36;13.83;;;9.63;;
60002;SDS011;46322;52.018;8.702;2022-07-25T04:23:36;13.87;;;9.63;;
60002;SDS011;46322;52.018;8.702;2022-07-25T04:28:38;14.40;;;8.65;;
60002;SDS011;46322;52.018;8.702;2022-07-25T04:33:39;12.02;;;8.80;;
60002;SDS011;46322;52.018;8.702;2022-07-25T04:38:40;13.53;;;8.50;;
60002;SDS011;46322;52.018;8.702;2022-07-25T04:43:40;11.67;;;8.50;;
60002;SDS011;46322;52.018;8.702;2022-07-25T04:48:40;11.68;;;8.18;;
60002;SDS011;46322;52.018;8.702;2022-07-25T04:53:40;12.13;;;8.23;;
60002;SDS011;46322;52.018;8.702;2022-07-25T04:58:41;10.37;;;7.40;;
60002;SDS011;46322;52.018;8.702;2022-07-25T05:03:41;10.98;;;8.27;;
60002;SDS011;46322;52.018;8.702;2022-07-25T05:08:41;12.93;;;8.95;;
60002;SDS011;46322;52.018;8.702;2022-07-25T05:13:41;11.73;;;8.15;;
60002;SDS011;46322;52.018;8.702;2022-07-25T05:18:42;12.27;;;8.50;;
60002;SDS011;46322;52.018;8.702;2022-07-25T05:23:42;13.43;;;8.83;;
60002;SDS011;46322;52.018;8.702;2022-07-25T05:28:42;11.38;;;8.50;;
60002;SDS011;46322;52.018;8.702;2022-07-25T05:33:43;12.68;;;8.90;;
60002;SDS011;46322;52.018;8.702;2022-07-25T05:38:43;10.90;;;7.70;;
60002;SDS011;46322;52.018;8.702;2022-07-25T05:43:43;10.38;;;7.95;;
60002;SDS011;46322;52.018;8.702;2022-07-25T05:48:43;12.90;;;7.95;;
60002;SDS011;46322;52.018;8.702;2022-07-25T05:53:44;10.60;;;7.70;;
60002;SDS011;46322;52.018;8.702;2022-07-25T05:58:44;10.57;;;7.27;;
60002;SDS011;46322;52.018;8.702;2022-07-25T06:03:44;11.23;;;7.40;;
60002;SDS011;46322;52.018;8.702;2022-07-25T06:08:44;9.32;;;7.47;;
60002;SDS011;46322;52.018;8.702;2022-07-25T06:13:45;8.77;;;7.17;;
60002;SDS011;46322;52.018;8.702;2022-07-25T06:18:46;13.13;;;7.97;;
60002;SDS011;46322;52.018;8.702;2022-07-25T06:23:46;11.50;;;7.47;;
60002;SDS011;46322;52.018;8.702;2022-07-25T06:28:47;9.02;;;7.45;;
60002;SDS011;46322;52.018;8.702;2022-07-25T06:33:47;11.98;;;7.53;;
60002;SDS011;46322;52.018;8.702;2022-07-25T06:38:47;10.40;;;7.75;;
60002;SDS011;46322;52.018;8.702;2022-07-25T06:43:47;12.98;;;7.60;;
60002;SDS011;46322;52.018;8.702;2022-07-25T06:48:48;10.17;;;8.00;;
60002;SDS011;46322;52.018;8.702;2022-07-25T06:53:48;12.02;;;8.10;;
60002;SDS011;46322;52.018;8.702;2022-07-25T06:58:49;10.30;;;7.78;;
60002;SDS011;46322;52.018;8.702;2022-07-25T07:03:49;12.67;;;7.40;;
60002;SDS011;46322;52.018;8.702;2022-07-25T07:08:49;9.52;;;7.70;;
60002;SDS011;46322;52.018;8.702;2022-07-25T07:13:50;9.27;;;7.75;;
60002;SDS011;46322;52.018;8.702;2022-07-25T07:18:51;11.47;;;7.63;;
60002;SDS011;46322;52.018;8.702;2022-07-25T07:23:51;10.43;;;7.43;;
60002;SDS011;46322;52.018;8.702;2022-07-25T07:28:51;10.77;;;7.70;;
60002;SDS011;46322;52.018;8.702;2022-07-25T07:33:51;9.25;;;7.35;;
60002;SDS011;46322;52.018;8.702;2022-07-25T07:38:52;11.10;;;7.78;;
60002;SDS011;46322;52.018;8.702;2022-07-25T07:43:52;11.75;;;8.63;;
60002;SDS011;46322;52.018;8.702;2022-07-25T07:48:52;12.98;;;8.20;;
60002;SDS011;46322;52.018;8.702;2022-07-25T07:53:52;10.30;;;7.72;;
60002;SDS011;46322;52.018;8.702;2022-07-25T07:58:53;9.68;;;7.97;;
60002;SDS011;46322;52.018;8.702;2022-07-25T08:03:53;10.48;;;7.95;;
60002;SDS011;46322;52.018;8.702;2022-07-25T08:08:58;10.63;;;7.97;;
60002;SDS011;46322;52.018;8.702;2022-07-25T08:13:58;10.10;;;8.30;;
60002;SDS011;46322;52.018;8.702;2022-07-25T08:18:58;10.37;;;8.20;;
60002;SDS011;46322;52.018;8.702;2022-07-25T08:23:58;10.10;;;8.23;;
60002;SDS011;46322;52.018;8.702;2022-07-25T08:28:59;9.43;;;7.55;;
60002;SDS011;46322;52.018;8.702;2022-07-25T08:33:59;13.02;;;8.38;;
60002;SDS011;46322;52.018;8.702;2022-07-25T08:38:59;10.68;;;7.70;;
60002;SDS011;46322;52.018;8.702;2022-07-25T08:44:00;9.45;;;8.00;;
60002;SDS011;46322;52.018;8.702;2022-07-25T08:49:01;10.73;;;7.57;;
60002;SDS011;46322;52.018;8.702;2022-07-25T08:54:04;8.77;;;7.60;;
60002;SDS011;46322;52.018;8.702;2022-07-25T08:59:04;8.60;;;7.22;;
60002;SDS011;46322;52.018;8.702;2022-07-25T09:04:06;9.30;;;7.75;;
60002;SDS011;46322;52.018;8.702;2022-07-25T09:09:07;10.40;;;7.63;;
60002;SDS011;46322;52.018;8.702;2022-07-25T09:14:09;8.73;;;7.47;;
60002;SDS011;46322;52.018;8.702;2022-07-25T09:19:30;9.43;;;7.47;;
60002;SDS011;46322;52.018;8.702;2022-07-25T09:24:31;12.70;;;7.82;;
60002;SDS011;46322;52.018;8.702;2022-07-25T09:29:41;9.10;;;7.70;;
60002;SDS011;46322;52.018;8.702;2022-07-25T09:34:42;8.47;;;7.57;;
60002;SDS011;46322;52.018;8.702;2022-07-25T09:39:51;10.23;;;7.57;;
60002;SDS011;46322;52.018;8.702;2022-07-25T09:50:12;10.50;;;7.77;;
60002;SDS011;46322;52.018;8.702;2022-07-25T09:55:12;8.95;;;7.50;;
60002;SDS011;46322;52.018;8.702;2022-07-25T10:00:13;8.87;;;7.37;;
60002;SDS011;46322;52.018;8.702;2022-07-25T10:10:38;9.20;;;6.80;;
60002;SDS011;46322;52.018;8.702;2022-07-25T10:15:41;7.73;;;6.93;;
60002;SDS011;46322;52.018;8.702;2022-07-25T10:20:52;8.67;;;7.77;;
60002;SDS011;46322;52.018;8.702;2022-07-25T10:25:58;11.15;;;7.85;;
60002;SDS011;46322;52.018;8.702;2022-07-25T10:31:00;9.40;;;7.45;;
60002;SDS011;46322;52.018;8.702;2022-07-25T10:36:06;8.57;;;7.40;;
60002;SDS011;46322;52.018;8.702;2022-07-25T10:41:06;9.85;;;7.30;;
60002;SDS011;46322;52.018;8.702;2022-07-25T10:46:13;8.63;;;7.57;;
60002;SDS011;46322;52.018;8.702;2022-07-25T10:51:17;9.57;;;7.43;;
60002;SDS011;46322;52.018;8.702;2022-07-25T10:56:26;10.40;;;7.87;;
60002;SDS011;46322;52.018;8.702;2022-07-25T11:01:28;9.35;;;8.20;;
60002;SDS011;46322;52.018;8.702;2022-07-25T11:06:33;10.27;;;7.95;;
60002;SDS011;46322;52.018;8.702;2022-07-25T11:11:39;9.20;;;7.63;;
60002;SDS011;46322;52.018;8.702;2022-07-25T11:16:41;11.38;;;8.07;;
60002;SDS011;46322;52.018;8.702;2022-07-25T11:21:46;8.80;;;7.55;;
60002;SDS011;46322;52.018;8.702;2022-07-25T11:26:50;9.00;;;7.50;;
60002;SDS011;46322;52.018;8.702;2022-07-25T11:31:52;8.05;;;6.75;;
60002;SDS011;46322;52.018;8.702;2022-07-25T11:36:53;8.65;;;7.13;;
60002;SDS011;46322;52.018;8.702;2022-07-25T11:42:00;9.07;;;7.40;;
60002;SDS011;46322;52.018;8.702;2022-07-25T11:47:02;9.47;;;7.43;;
60002;SDS011;46322;52.018;8.702;2022-07-25T11:52:04;10.48;;;8.07;;
60002;SDS011;46322;52.018;8.702;2022-07-25T11:57:04;9.38;;;7.88;;
60002;SDS011;46322;52.018;8.702;2022-07-25T12:02:04;9.97;;;7.80;;
60002;SDS011;46322;52.018;8.702;2022-07-25T12:07:05;8.95;;;7.93;;
60002;SDS011;46322;52.018;8.702;2022-07-25T12:12:05;11.43;;;7.63;;
60002;SDS011;46322;52.018;8.702;2022-07-25T12:17:05;8.87;;;7.43;;
60002;SDS011;46322;52.018;8.702;2022-07-25T12:22:06;9.55;;;8.13;;
60002;SDS011;46322;52.018;8.702;2022-07-25T12:27:06;10.63;;;7.88;;
60002;SDS011;46322;52.018;8.702;2022-07-25T12:32:06;11.77;;;8.05;;
60002;SDS011;46322;52.018;8.702;2022-07-25T12:37:07;11.27;;;8.07;;
60002;SDS011;46322;52.018;8.702;2022-07-25T12:42:07;9.27;;;7.75;;
60002;SDS011;46322;52.018;8.702;2022-07-25T12:47:07;8.93;;;7.73;;
60002;SDS011;46322;52.018;8.702;2022-07-25T12:52:07;10.20;;;7.43;;
60002;SDS011;46322;52.018;8.702;2022-07-25T12:57:11;9.43;;;8.10;;
60002;SDS011;46322;52.018;8.702;2022-07-25T13:02:12;9.63;;;8.10;;
60002;SDS011;46322;52.018;8.702;2022-07-25T13:07:12;9.82;;;8.00;;
60002;SDS011;46322;52.018;8.702;2022-07-25T13:12:13;9.07;;;8.17;;
60002;SDS011;46322;52.018;8.702;2022-07-25T13:17:14;9.23;;;7.87;;
60002;SDS011;46322;52.018;8.702;2022-07-25T13:22:15;9.52;;;8.48;;
60002;SDS011;46322;52.018;8.702;2022-07-25T13:27:16;9.83;;;8.80;;
60002;SDS011;46322;52.018;8.702;2022-07-25T13:32:18;9.70;;;8.10;;
60002;SDS011;46322;52.018;8.702;2022-07-25T13:37:19;9.55;;;7.75;;
60002;SDS011;46322;52.018;8.702;2022-07-25T13:42:19;9.10;;;7.60;;
60002;SDS011;46322;52.018;8.702;2022-07-25T13:47:19;9.50;;;7.53;;
60002;SDS011;46322;52.018;8.702;2022-07-25T13:52:20;10.05;;;7.15;;
60002;SDS011;46322;52.018;8.702;2022-07-25T13:57:20;10.20;;;7.87;;
60002;SDS011;46322;52.018;8.702;2022-07-25T14:02:20;9.38;;;8.10;;
60002;SDS011;46322;52.018;8.702;2022-07-25T14:07:20;9.33;;;8.40;;
60002;SDS011;46322;52.018;8.702;2022-07-25T14:12:21;11.13;;;8.20;;
60002;SDS011;46322;52.018;8.702;2022-07-25T14:17:24;10.20;;;9.20;;
60002;SDS011;46322;52.018;8.702;2022-07-25T14:22:24;11.68;;;9.13;;
60002;SDS011;46322;52.018;8.702;2022-07-25T14:27:24;10.03;;;8.37;;
60002;SDS011;46322;52.018;8.702;2022-07-25T14:32:25;9.27;;;8.27;;
60002;SDS011;46322;52.018;8.702;2022-07-25T14:37:27;8.88;;;7.70;;
60002;SDS011;46322;52.018;8.702;2022-07-25T14:42:27;10.90;;;8.30;;
60002;SDS011;46322;52.018;8.702;2022-07-25T14:47:28;13.10;;;8.18;;
60002;SDS011;46322;52.018;8.702;2022-07-25T14:52:28;10.13;;;7.68;;
60002;SDS011;46322;52.018;8.702;2022-07-25T14:57:28;10.65;;;7.50;;
60002;SDS011;46322;52.018;8.702;2022-07-25T15:02:28;9.33;;;6.70;;
60002;SDS011;46322;52.018;8.702;2022-07-25T15:07:29;9.13;;;6.03;;
60002;SDS011;46322;52.018;8.702;2022-07-25T15:12:29;7.80;;;5.80;;
60002;SDS011;46322;52.018;8.702;2022-07-25T15:17:29;7.13;;;5.68;;
60002;SDS011;46322;52.018;8.702;2022-07-25T15:22:30;6.75;;;5.13;;
60002;SDS011;46322;52.018;8.702;2022-07-25T15:27:30;17.33;;;5.70;;
60002;SDS011;46322;52.018;8.702;2022-07-25T15:32:31;16.97;;;6.03;;
60002;SDS011;46322;52.018;8.702;2022-07-25T15:37:31;10.87;;;5.10;;
60002;SDS011;46322;52.018;8.702;2022-07-25T15:42:32;6.82;;;4.70;;
60002;SDS011;46322;52.018;8.702;2022-07-25T15:47:32;7.60;;;4.38;;
60002;SDS011;46322;52.018;8.702;2022-07-25T15:52:33;5.77;;;4.73;;
60002;SDS011;46322;52.018;8.702;2022-07-25T15:57:33;6.35;;;4.15;;
60002;SDS011;46322;52.018;8.702;2022-07-25T16:02:33;5.03;;;3.37;;
60002;SDS011;46322;52.018;8.702;2022-07-25T16:07:34;8.20;;;3.17;;
60002;SDS011;46322;52.018;8.702;2022-07-25T16:12:34;5.63;;;3.43;;
60002;SDS011;46322;52.018;8.702;2022-07-25T16:17:36;5.38;;;3.33;;
60002;SDS011;46322;52.018;8.702;2022-07-25T16:22:36;9.63;;;3.72;;
60002;SDS011;46322;52.018;8.702;2022-07-25T16:27:37;5.90;;;3.37;;
60002;SDS011;46322;52.018;8.702;2022-07-25T16:32:40;5.22;;;3.28;;
60002;SDS011;46322;52.018;8.702;2022-07-25T16:37:41;4.73;;;2.73;;
60002;SDS011;46322;52.018;8.702;2022-07-25T16:42:42;6.40;;;3.10;;
60002;SDS011;46322;52.018;8.702;2022-07-25T16:47:47;6.88;;;3.15;;
60002;SDS011;46322;52.018;8.702;2022-07-25T16:52:48;5.00;;;2.42;;
60002;SDS011;46322;52.018;8.702;2022-07-25T16:57:48;5.78;;;3.00;;
60002;SDS011;46322;52.018;8.702;2022-07-25T17:02:48;12.67;;;3.63;;
60002;SDS011;46322;52.018;8.702;2022-07-25T17:07:49;11.07;;;3.30;;
60002;SDS011;46322;52.018;8.702;2022-07-25T17:12:49;7.45;;;3.25;;
60002;SDS011;46322;52.018;8.702;2022-07-25T17:17:56;13.23;;;4.10;;
60002;SDS011;46322;52.018;8.702;2022-07-25T17:22:58;8.55;;;4.63;;
60002;SDS011;46322;52.018;8.702;2022-07-25T17:27:58;7.55;;;4.90;;
60002;SDS011;46322;52.018;8.702;2022-07-25T17:32:59;9.00;;;5.20;;
60002;SDS011;46322;52.018;8.702;2022-07-25T17:37:59;11.23;;;5.27;;
60002;SDS011;46322;52.018;8.702;2022-07-25T17:43:00;6.73;;;4.90;;
60002;SDS011;46322;52.018;8.702;2022-07-25T17:48:00;7.53;;;4.83;;
60002;SDS011;46322;52.018;8.702;2022-07-25T17:53:01;8.53;;;4.50;;
60002;SDS011;46322;52.018;8.702;2022-07-25T17:58:02;7.60;;;4.53;;
60002;SDS011;46322;52.018;8.702;2022-07-25T18:03:02;7.70;;;4.60;;
60002;SDS011;46322;52.018;8.702;2022-07-25T18:08:03;6.57;;;4.10;;
60002;SDS011;46322;52.018;8.702;2022-07-25T18:13:03;8.90;;;4.40;;
60002;SDS011;46322;52.018;8.702;2022-07-25T18:18:03;8.05;;;4.70;;
60002;SDS011;46322;52.018;8.702;2022-07-25T18:23:05;7.17;;;4.07;;
60002;SDS011;46322;52.018;8.702;2022-07-25T18:28:06;7.90;;;4.55;;
60002;SDS011;46322;52.018;8.702;2022-07-25T18:33:06;8.37;;;4.40;;
60002;SDS011;46322;52.018;8.702;2022-07-25T18:38:06;8.33;;;4.40;;
60002;SDS011;46322;52.018;8.702;2022-07-25T18:43:07;8.40;;;4.27;;
60002;SDS011;46322;52.018;8.702;2022-07-25T18:48:07;6.88;;;4.25;;
60002;SDS011;46322;52.018;8.702;2022-07-25T18:53:07;5.65;;;4.13;;
60002;SDS011;46322;52.018;8.702;2022-07-25T18:58:08;9.40;;;4.47;;
60002;SDS011;46322;52.018;8.702;2022-07-25T19:03:08;8.67;;;4.37;;
60002;SDS011;46322;52.018;8.702;2022-07-25T19:08:09;7.32;;;4.50;;
60002;SDS011;46322;52.018;8.702;2022-07-25T19:13:09;7.55;;;4.40;;
60002;SDS011;46322;52.018;8.702;2022-07-25T19:18:10;7.53;;;4.63;;
60002;SDS011;46322;52.018;8.702;2022-07-25T19:23:10;8.50;;;4.77;;
60002;SDS011;46322;52.018;8.702;2022-07-25T19:28:11;9.50;;;4.93;;
60002;SDS011;46322;52.018;8.702;2022-07-25T19:33:11;8.00;;;5.30;;
60002;SDS011;46322;52.018;8.702;2022-07-25T19:38:12;15.75;;;5.68;;
60002;SDS011;46322;52.018;8.702;2022-07-25T19:43:12;9.80;;;5.33;;
60002;SDS011;46322;52.018;8.702;2022-07-25T19:48:13;12.20;;;6.07;;
60002;SDS011;46322;52.018;8.702;2022-07-25T19:53:14;11.63;;;5.70;;
60002;SDS011;46322;52.018;8.702;2022-07-25T19:58:15;9.50;;;5.35;;
60002;SDS011;46322;52.018;8.702;2022-07-25T20:03:15;7.22;;;4.60;;
60002;SDS011;46322;52.018;8.702;2022-07-25T20:08:15;9.80;;;4.37;;
60002;SDS011;46322;52.018;8.702;2022-07-25T20:13:16;9.73;;;3.75;;
60002;SDS011;46322;52.018;8.702;2022-07-25T20:18:16;10.57;;;3.90;;
60002;SDS011;46322;52.018;8.702;2022-07-25T20:23:16;6.38;;;3.40;;
60002;SDS011;46322;52.018;8.702;2022-07-25T20:28:16;8.60;;;3.90;;
60002;SDS011;46322;52.018;8.702;2022-07-25T20:33:17;7.65;;;3.47;;
60002;SDS011;46322;52.018;8.702;2022-07-25T20:38:17;7.53;;;3.25;;
60002;SDS011;46322;52.018;8.702;2022-07-25T20:43:17;11.13;;;3.00;;
60002;SDS011;46322;52.018;8.702;2022-07-25T20:48:17;6.45;;;2.90;;
60002;SDS011;46322;52.018;8.702;2022-07-25T20:53:18;11.63;;;2.60;;
60002;SDS011;46322;52.018;8.702;2022-07-25T20:58:19;12.77;;;3.30;;
60002;SDS011;46322;52.018;8.702;2022-07-25T21:03:19;18.43;;;3.53;;
60002;SDS011;46322;52.018;8.702;2022-07-25T21:08:20;8.20;;;2.70;;
60002;SDS011;46322;52.018;8.702;2022-07-25T21:13:20;8.23;;;2.37;;
60002;SDS011;46322;52.018;8.702;2022-07-25T21:18:20;7.67;;;2.43;;
60002;SDS011;46322;52.018;8.702;2022-07-25T21:23:20;5.70;;;2.03;;
60002;SDS011;46322;52.018;8.702;2022-07-25T21:28:21;4.70;;;2.10;;
60002;SDS011;46322;52.018;8.702;2022-07-25T21:33:21;7.68;;;1.77;;
60002;SDS011;46322;52.018;8.702;2022-07-25T21:38:21;6.30;;;1.95;;
60002;SDS011;46322;52.018;8.702;2022-07-25T21:43:22;9.60;;;1.97;;
60002;SDS011;46322;52.018;8.702;2022-07-25T21:48:23;4.93;;;1.70;;
60002;SDS011;46322;52.018;8.702;2022-07-25T21:53:23;6.60;;;1.92;;
60002;SDS011;46322;52.018;8.702;2022-07-25T21:58:23;5.05;;;1.50;;
60002;SDS011;46322;52.018;8.702;2022-07-25T22:03:23;6.75;;;2.05;;
60002;SDS011;46322;52.018;8.702;2022-07-25T22:08:24;8.00;;;2.10;;
60002;SDS011;46322;52.018;8.702;2022-07-25T22:13:24;6.70;;;1.60;;
60002;SDS011;46322;52.018;8.702;2022-07-25T22:18:25;7.75;;;1.98;;
60002;SDS011;46322;52.018;8.702;2022-07-25T22:23:25;8.57;;;1.83;;
60002;SDS011;46322;52.018;8.702;2022-07-25T22:28:25;5.30;;;1.70;;
60002;SDS011;46322;52.018;8.702;2022-07-25T22:33:25;6.07;;;1.50;;
60002;SDS011;46322;52.018;8.702;2022-07-25T22:38:26;5.22;;;1.35;;
60002;SDS011;46322;52.018;8.702;2022-07-25T22:43:26;7.00;;;1.40;;
60002;SDS011;46322;52.018;8.702;2022-07-25T22:48:26;5.43;;;1.58;;
60002;SDS011;46322;52.018;8.702;2022-07-25T22:53:26;5.50;;;1.23;;
60002;SDS011;46322;52.018;8.702;2022-07-25T22:58:27;6.72;;;1.30;;
60002;SDS011;46322;52.018;8.702;2022-07-25T23:03:27;4.95;;;1.30;;
60002;SDS011;46322;52.018;8.702;2022-07-25T23:08:27;8.23;;;1.40;;
60002;SDS011;46322;52.018;8.702;2022-07-25T23:13:28;5.43;;;1.40;;
60002;SDS011;46322;52.018;8.702;2022-07-25T23:18:28;4.37;;;1.10;;
60002;SDS011;46322;52.018;8.702;2022-07-25T23:23:29;6.25;;;1.58;;
60002;SDS011;46322;52.018;8.702;2022-07-25T23:28:30;3.73;;;1.20;;
60002;SDS011;46322;52.018;8.702;2022-07-25T23:33:30;5.00;;;1.10;;
60002;SDS011;46322;52.018;8.702;2022-07-25T23:38:31;3.20;;;1.20;;
60002;SDS011;46322;52.018;8.702;2022-07-25T23:43:31;3.47;;;1.10;;
60002;SDS011;46322;52.018;8.702;2022-07-25T23:48:32;4.47;;;1.13;;
60002;SDS011;46322;52.018;8.702;2022-07-25T23:53:34;6.37;;;1.30;;
60002;SDS011;46322;52.018;8.702;2022-07-25T23:58:34;5.63;;;1.70;;
